首页
METAR-TAF:

METAR-TAF

机场 :

科纳克里国际机场

科納克里, 几内亚

纬度: 09-34N, 经度: 013-37W, 海拔: 26米

当前天气观测

该预报发布于33分钟前的09:00 UTC
静风
温度 26°C
湿度 84%
气压 1011 hPa
能见度10公里或以上
少量云层高于1500英尺
多云层高于11000英尺

METAR: GUCY 140900Z 00000KT 9999 FEW015 BKN110 26/23 Q1011 NOSIG

时间: 09:33 (09:33 UTC)

预报

该预报发布于4小时和33分钟前的05:00 UTC
预报有效从14日的 06点(UTC)到 15日的 12点(UTC)
风速6节,风向西
能见度10公里或以上
少量云层高于1500英尺
散云层高于11000英尺
几率 30% :
短暂存在
从 14日的 18点(UTC)到 14日的 24点(UTC)
风速10节,风向南转南东
能見度: 7000
散云层高于1300英尺
少量云层高于2300英尺, 积雨云.
多云层高于11000英尺
雷暴, 小雨

TAF: GUCY 140500Z 1406/1512 26006KT 9999 FEW015 SCT110 PROB30 TEMPO 1418/1424 16010KT 7000 -TSRA SCT013 FEW023CB BKN110

超过4000个机场的气象观测和天气预报(METAR&TAF报告)。

可查询的气象台以黄色和红色小点在地图上表示。

将鼠标移到小点上方,可查看气象台名称。

然后点击查看天气观测和预报。

如需切换地图:点击带黑十字的绿色按钮放大地图;点击带横线的绿色按钮缩小地图;或者点击绿色箭头查看邻近地区的地图。


METAR-TAF: